createdAt,value
2023-03-13T00:00:55.381Z,12.54
2023-03-13T00:03:24.159Z,12.60
2023-03-13T00:05:56.934Z,12.62
2023-03-13T00:08:24.827Z,12.63
2023-03-13T00:10:53.186Z,12.65
2023-03-13T00:13:20.734Z,12.63
2023-03-13T00:15:48.413Z,12.59
2023-03-13T00:18:16.032Z,12.62
2023-03-13T00:20:43.696Z,12.68
2023-03-13T00:23:13.237Z,12.72
2023-03-13T00:25:40.737Z,12.70
2023-03-13T00:28:08.388Z,12.65
2023-03-13T00:30:35.952Z,12.68
2023-03-13T00:33:04.274Z,12.69
2023-03-13T00:35:32.011Z,12.71
2023-03-13T00:37:59.626Z,12.89
2023-03-13T00:40:28.543Z,12.86
2023-03-13T00:42:56.081Z,12.90
2023-03-13T00:45:23.676Z,12.89
2023-03-13T00:47:51.231Z,12.97
2023-03-13T00:50:19.151Z,12.97
2023-03-13T00:52:46.666Z,13.02
2023-03-13T00:55:14.218Z,12.97
2023-03-13T00:57:43.116Z,12.97
2023-03-13T01:00:12.256Z,13.01
2023-03-13T01:02:42.874Z,13.02
2023-03-13T01:05:11.439Z,12.96
2023-03-13T01:07:39.004Z,12.97
2023-03-13T01:10:07.993Z,12.92
2023-03-13T01:12:35.799Z,12.98
2023-03-13T01:15:07.471Z,12.97
2023-03-13T01:17:35.019Z,12.91
2023-03-13T01:20:02.604Z,12.90
2023-03-13T01:22:30.248Z,12.90
2023-03-13T01:24:58.578Z,12.88
2023-03-13T01:27:26.417Z,12.94
2023-03-13T01:29:54.097Z,12.93
2023-03-13T01:32:23.280Z,12.90
2023-03-13T01:34:50.856Z,12.91
2023-03-13T01:37:18.735Z,12.96
2023-03-13T01:39:46.256Z,12.99
2023-03-13T01:42:14.483Z,12.99
2023-03-13T01:44:51.774Z,12.98
2023-03-13T01:47:19.484Z,12.98
2023-03-13T01:50:11.584Z,12.99
2023-03-13T01:52:52.207Z,12.97
2023-03-13T01:55:24.358Z,13.01
2023-03-13T01:57:55.257Z,13.11
2023-03-13T02:00:27.952Z,13.13
2023-03-13T02:02:57.851Z,13.10
2023-03-13T02:05:29.934Z,13.10
2023-03-13T02:08:02.836Z,13.14
2023-03-13T02:10:33.026Z,13.16
2023-03-13T02:13:03.518Z,13.12
2023-03-13T02:15:32.264Z,13.12
2023-03-13T02:18:00.126Z,13.15
2023-03-13T02:20:29.109Z,13.19
2023-03-13T02:23:01.828Z,13.20
2023-03-13T02:25:38.326Z,13.17
2023-03-13T02:28:09.592Z,13.09
2023-03-13T02:30:39.550Z,13.04
2023-03-13T02:33:07.247Z,12.99
2023-03-13T02:35:37.657Z,12.97
2023-03-13T02:38:12.873Z,12.97
2023-03-13T02:40:45.479Z,12.87
2023-03-13T02:43:18.031Z,12.88
2023-03-13T02:46:05.501Z,12.86
2023-03-13T02:48:37.415Z,12.74
2023-03-13T02:51:09.717Z,12.71
2023-03-13T02:53:38.742Z,12.70
2023-03-13T02:56:08.514Z,12.70
2023-03-13T02:58:49.761Z,12.67
2023-03-13T03:01:19.701Z,12.62
2023-03-13T03:03:47.474Z,12.62
2023-03-13T03:06:15.161Z,12.62
2023-03-13T03:08:43.894Z,12.63
2023-03-13T03:11:14.414Z,12.64
2023-03-13T03:13:44.275Z,12.58
2023-03-13T03:16:18.533Z,12.56
2023-03-13T03:18:46.160Z,12.54
2023-03-13T03:21:14.479Z,12.56
2023-03-13T03:23:42.110Z,12.57
2023-03-13T03:26:10.998Z,12.57
2023-03-13T03:28:41.214Z,12.60
2023-03-13T03:31:14.804Z,12.62
2023-03-13T03:33:45.199Z,12.61
2023-03-13T03:36:16.618Z,12.59
2023-03-13T03:38:46.032Z,12.61
2023-03-13T03:41:16.477Z,12.60
2023-03-13T03:43:47.262Z,12.59
2023-03-13T03:46:17.898Z,12.56
2023-03-13T03:48:45.724Z,12.49
2023-03-13T03:51:14.124Z,12.46
2023-03-13T03:53:44.326Z,12.51
2023-03-13T03:56:12.115Z,12.52
2023-03-13T03:58:47.668Z,12.59
2023-03-13T04:01:38.463Z,12.79
2023-03-13T04:04:06.978Z,12.85
2023-03-13T04:06:34.764Z,12.95
2023-03-13T04:09:04.754Z,13.03
2023-03-13T04:11:33.354Z,13.17
2023-03-13T04:14:02.325Z,13.26
2023-03-13T04:16:30.795Z,13.36
2023-03-13T04:18:58.439Z,13.40
2023-03-13T04:21:27.417Z,13.42
2023-03-13T04:24:05.304Z,13.45
2023-03-13T04:26:34.832Z,13.44
2023-03-13T04:29:06.195Z,13.46
2023-03-13T04:31:54.212Z,13.53
2023-03-13T04:34:34.330Z,13.56
2023-03-13T04:37:05.024Z,13.52
2023-03-13T04:39:49.744Z,13.55
2023-03-13T04:42:23.358Z,13.57
2023-03-13T04:45:18.684Z,13.63
2023-03-13T04:47:59.350Z,13.63
2023-03-13T04:50:45.595Z,13.62
2023-03-13T04:53:27.968Z,13.67
2023-03-13T04:56:06.089Z,13.77
2023-03-13T04:58:49.329Z,13.85
2023-03-13T05:01:32.768Z,13.84
2023-03-13T05:04:29.585Z,13.87
2023-03-13T05:07:24.195Z,13.84
2023-03-13T05:10:11.758Z,13.83
2023-03-13T05:13:03.306Z,13.84
2023-03-13T05:15:41.212Z,13.88
2023-03-13T05:18:26.567Z,13.86
2023-03-13T05:21:07.955Z,13.87
2023-03-13T05:24:02.419Z,13.80
2023-03-13T05:26:39.099Z,13.78
2023-03-13T05:29:28.665Z,13.69
2023-03-13T05:32:25.523Z,13.70
2023-03-13T05:35:05.889Z,13.70
2023-03-13T05:37:46.543Z,13.74
2023-03-13T05:40:32.652Z,13.70
2023-03-13T05:43:24.686Z,13.74
2023-03-13T05:46:04.484Z,13.88
2023-03-13T05:48:58.113Z,13.83
2023-03-13T05:51:46.709Z,13.84
2023-03-13T05:54:32.992Z,13.93
2023-03-13T05:57:19.720Z,13.91
2023-03-13T05:59:53.429Z,13.90
2023-03-13T06:02:41.083Z,13.98
2023-03-13T06:05:11.846Z,13.95
2023-03-13T06:07:41.129Z,13.98
2023-03-13T06:10:11.826Z,14.01
2023-03-13T06:12:39.867Z,14.01
2023-03-13T06:15:12.345Z,14.02
2023-03-13T06:18:03.086Z,14.02
2023-03-13T06:20:30.758Z,14.09
2023-03-13T06:22:59.617Z,14.13
2023-03-13T06:25:27.211Z,14.23
2023-03-13T06:27:54.764Z,14.10
2023-03-13T06:30:22.554Z,14.06
2023-03-13T06:32:50.991Z,14.10
2023-03-13T06:35:18.751Z,14.08
2023-03-13T06:37:46.365Z,14.04
2023-03-13T06:40:15.413Z,14.12
2023-03-13T06:42:43.054Z,14.08
2023-03-13T06:45:11.604Z,14.06
2023-03-13T06:47:39.312Z,14.06
2023-03-13T06:50:07.726Z,14.07
2023-03-13T06:52:43.447Z,14.07
2023-03-13T06:55:12.894Z,14.07
2023-03-13T06:57:41.999Z,14.04
2023-03-13T07:00:12.320Z,14.09
2023-03-13T07:02:39.882Z,14.15
2023-03-13T07:05:09.179Z,14.15
2023-03-13T07:07:36.822Z,14.15
2023-03-13T07:10:04.901Z,14.16
2023-03-13T07:12:32.450Z,14.13
2023-03-13T07:15:01.343Z,14.18
2023-03-13T07:17:29.027Z,14.18
2023-03-13T07:19:56.678Z,14.18
2023-03-13T07:22:24.288Z,14.24
2023-03-13T07:24:51.898Z,14.26
2023-03-13T07:27:20.909Z,14.28
2023-03-13T07:29:48.435Z,14.40
2023-03-13T07:32:17.558Z,14.39
2023-03-13T07:34:45.480Z,14.47
2023-03-13T07:37:13.222Z,14.45
2023-03-13T07:39:41.059Z,14.48
2023-03-13T07:42:10.689Z,14.54
2023-03-13T07:44:38.289Z,14.56
2023-03-13T07:47:06.790Z,14.64
2023-03-13T07:49:39.291Z,14.66
2023-03-13T07:52:06.909Z,14.71
2023-03-13T07:54:34.731Z,14.72
2023-03-13T07:57:02.596Z,14.71
2023-03-13T07:59:30.721Z,14.79
2023-03-13T08:01:58.367Z,14.85
2023-03-13T08:04:26.009Z,14.95
2023-03-13T08:06:55.332Z,15.03
2023-03-13T08:09:22.913Z,15.12
2023-03-13T08:11:50.409Z,15.13
2023-03-13T08:14:18.001Z,15.25
2023-03-13T08:16:45.653Z,15.30
2023-03-13T08:19:13.309Z,15.34
2023-03-13T08:21:40.863Z,15.33
2023-03-13T08:24:12.893Z,15.40
2023-03-13T08:26:42.335Z,15.46
2023-03-13T08:29:11.936Z,15.52
2023-03-13T08:31:44.614Z,15.54
2023-03-13T08:34:12.990Z,15.61
2023-03-13T08:36:41.459Z,15.55
2023-03-13T08:39:13.286Z,15.56
2023-03-13T08:41:41.576Z,15.52
2023-03-13T08:44:12.108Z,15.44
2023-03-13T08:46:39.887Z,15.50
2023-03-13T08:49:08.827Z,15.46
2023-03-13T08:51:36.797Z,15.39
2023-03-13T08:54:05.285Z,15.42
2023-03-13T08:56:35.018Z,15.44
2023-03-13T08:59:04.560Z,15.53
2023-03-13T09:01:33.924Z,15.58
2023-03-13T09:04:04.213Z,15.57
2023-03-13T09:06:32.207Z,15.64
2023-03-13T09:08:59.799Z,15.61
2023-03-13T09:11:27.931Z,15.59
2023-03-13T09:13:59.174Z,15.69
2023-03-13T09:16:28.904Z,15.68
2023-03-13T09:18:57.439Z,15.72
2023-03-13T09:21:26.871Z,15.82
2023-03-13T09:23:54.469Z,15.88
2023-03-13T09:26:23.605Z,16.04
2023-03-13T09:28:51.589Z,16.17
2023-03-13T09:31:22.597Z,16.27
2023-03-13T09:33:51.219Z,16.28
2023-03-13T09:36:22.084Z,16.29
2023-03-13T09:38:50.506Z,16.29
2023-03-13T09:41:25.009Z,16.27
2023-03-13T09:43:56.402Z,16.42
2023-03-13T09:46:29.248Z,16.64
2023-03-13T09:49:00.864Z,16.64
2023-03-13T09:51:31.658Z,16.79
2023-03-13T09:54:05.348Z,16.89
2023-03-13T09:56:38.147Z,16.84
2023-03-13T09:59:14.433Z,16.76
2023-03-13T10:01:45.226Z,16.73
2023-03-13T10:04:28.777Z,16.71
2023-03-13T10:06:56.461Z,16.70
2023-03-13T10:09:29.775Z,16.82
2023-03-13T10:12:00.536Z,16.82
2023-03-13T10:14:32.115Z,17.01
2023-03-13T10:17:08.669Z,17.13
2023-03-13T10:19:38.648Z,17.08
2023-03-13T10:22:14.224Z,17.12
2023-03-13T10:24:47.739Z,17.12
2023-03-13T10:27:16.859Z,17.28
2023-03-13T10:29:44.498Z,17.33
2023-03-13T10:32:16.289Z,17.49
2023-03-13T10:34:51.324Z,17.58
2023-03-13T10:37:22.936Z,17.68
2023-03-13T10:39:50.585Z,17.62
2023-03-13T10:42:24.752Z,17.67
2023-03-13T10:44:58.938Z,17.69
2023-03-13T10:47:28.532Z,17.80
2023-03-13T10:49:58.286Z,17.65
2023-03-13T10:52:43.555Z,17.69
2023-03-13T10:55:13.056Z,17.79
2023-03-13T10:57:44.269Z,17.78
2023-03-13T11:00:30.311Z,17.69
2023-03-13T11:02:59.473Z,17.82
2023-03-13T11:05:39.095Z,17.99
2023-03-13T11:08:21.812Z,18.05
2023-03-13T11:10:58.625Z,18.16
2023-03-13T11:13:37.508Z,17.99
2023-03-13T11:16:20.434Z,18.06
2023-03-13T11:19:10.856Z,18.22
2023-03-13T11:21:49.443Z,18.44
2023-03-13T11:24:25.966Z,18.51
2023-03-13T11:27:05.277Z,18.59
2023-03-13T11:29:41.176Z,18.71
2023-03-13T11:32:21.024Z,18.89
2023-03-13T11:34:54.102Z,19.25
2023-03-13T11:37:23.424Z,19.69
2023-03-13T11:40:11.264Z,19.87
2023-03-13T11:42:51.945Z,20.25
2023-03-13T11:45:38.231Z,20.28
2023-03-13T11:48:10.726Z,20.51
2023-03-13T11:50:49.350Z,20.49
2023-03-13T11:53:39.157Z,20.55
2023-03-13T11:56:12.622Z,20.67
2023-03-13T11:58:52.105Z,20.21
2023-03-13T12:01:21.610Z,20.40
2023-03-13T12:03:57.583Z,20.29
2023-03-13T12:06:31.873Z,20.54
2023-03-13T12:09:05.818Z,20.39
2023-03-13T12:11:38.036Z,20.22
2023-03-13T12:14:12.659Z,20.51
2023-03-13T12:16:44.625Z,20.89
2023-03-13T12:19:19.064Z,21.42
2023-03-13T12:21:53.118Z,21.60
2023-03-13T12:24:28.507Z,21.69
2023-03-13T12:27:06.707Z,22.12
2023-03-13T12:29:43.883Z,22.33
2023-03-13T12:32:15.670Z,22.53
2023-03-13T12:34:55.330Z,22.56
2023-03-13T12:37:30.765Z,22.33
2023-03-13T12:40:02.190Z,22.70
2023-03-13T12:42:44.184Z,22.53
2023-03-13T12:45:18.456Z,22.84
2023-03-13T12:48:23.320Z,22.92
2023-03-13T12:51:06.011Z,23.52
2023-03-13T12:53:57.771Z,22.86
2023-03-13T12:56:55.555Z,22.81
2023-03-13T12:59:26.078Z,23.26
2023-03-13T13:01:56.043Z,23.27
2023-03-13T13:04:25.845Z,22.99
2023-03-13T13:06:57.586Z,23.21
2023-03-13T13:09:28.372Z,23.18
2023-03-13T13:11:57.714Z,22.42
2023-03-13T13:14:59.779Z,22.63
2023-03-13T13:17:33.080Z,21.62
2023-03-13T13:20:20.496Z,21.97
2023-03-13T13:22:52.733Z,22.11
2023-03-13T13:25:35.092Z,21.99
2023-03-13T13:28:23.882Z,22.52
2023-03-13T13:30:54.603Z,22.85
2023-03-13T13:33:42.044Z,23.81
2023-03-13T13:36:42.516Z,24.67
2023-03-13T13:39:39.834Z,24.80
2023-03-13T13:42:50.129Z,26.12
2023-03-13T13:45:27.703Z,26.20
2023-03-13T13:48:26.464Z,26.48
2023-03-13T13:51:25.057Z,27.20
2023-03-13T13:53:56.005Z,26.51
2023-03-13T13:56:32.154Z,26.39
2023-03-13T13:59:05.735Z,27.04
2023-03-13T14:01:34.564Z,27.55
2023-03-13T14:04:12.403Z,27.43
2023-03-13T14:06:43.872Z,27.63
2023-03-13T14:09:21.729Z,27.41
2023-03-13T14:11:49.361Z,25.99
2023-03-13T14:14:20.270Z,26.44
2023-03-13T14:16:49.995Z,27.99
2023-03-13T14:19:24.410Z,27.69
2023-03-13T14:21:52.101Z,26.72
2023-03-13T14:24:19.724Z,25.16
2023-03-13T14:26:47.267Z,26.26
2023-03-13T14:29:25.721Z,27.54
2023-03-13T14:31:55.217Z,27.69
2023-03-13T14:34:23.610Z,28.82
2023-03-13T14:36:54.401Z,29.08
2023-03-13T14:39:37.871Z,29.74
2023-03-13T14:42:07.608Z,30.83
2023-03-13T14:44:38.889Z,31.10
2023-03-13T14:47:09.060Z,29.92
2023-03-13T14:49:37.869Z,29.20
2023-03-13T14:52:08.720Z,30.30
2023-03-13T14:54:38.105Z,31.40
2023-03-13T14:57:15.992Z,31.39
2023-03-13T14:59:45.237Z,30.80
2023-03-13T15:02:21.127Z,30.60
2023-03-13T15:04:50.126Z,30.74
2023-03-13T15:07:18.341Z,31.38
2023-03-13T15:09:47.026Z,30.17
2023-03-13T15:12:16.833Z,29.63
2023-03-13T15:14:47.206Z,27.31
2023-03-13T15:17:18.530Z,28.13
2023-03-13T15:19:51.113Z,29.15
2023-03-13T15:22:21.057Z,30.35
2023-03-13T15:25:04.933Z,29.42
2023-03-13T15:27:33.968Z,28.83
2023-03-13T15:30:02.858Z,29.81
2023-03-13T15:32:34.052Z,29.40
2023-03-13T15:35:03.254Z,30.26
2023-03-13T15:37:31.552Z,30.28
2023-03-13T15:39:59.296Z,29.44
2023-03-13T15:42:27.009Z,30.55
2023-03-13T15:44:54.554Z,29.97
2023-03-13T15:47:23.562Z,30.11
2023-03-13T15:49:51.268Z,29.99
2023-03-13T15:52:22.401Z,30.86
2023-03-13T15:54:51.543Z,30.65
2023-03-13T15:57:23.101Z,32.06
2023-03-13T15:59:51.244Z,29.96
2023-03-13T16:02:20.617Z,28.80
2023-03-13T16:04:49.959Z,28.40
2023-03-13T16:07:19.761Z,27.47
2023-03-13T16:09:47.840Z,26.87
2023-03-13T16:12:15.483Z,26.84
2023-03-13T16:14:43.151Z,26.67
2023-03-13T16:17:14.656Z,26.14
2023-03-13T16:19:42.244Z,25.14
2023-03-13T16:22:11.449Z,24.59
2023-03-13T16:24:39.123Z,24.39
2023-03-13T16:27:13.804Z,24.20
2023-03-13T16:29:41.561Z,23.94
2023-03-13T16:32:12.809Z,23.54
2023-03-13T16:34:40.540Z,23.32
2023-03-13T16:37:14.342Z,23.17
2023-03-13T16:39:42.038Z,23.10
2023-03-13T16:42:09.857Z,22.93
2023-03-13T16:44:37.599Z,22.74
2023-03-13T16:47:16.423Z,22.67
2023-03-13T16:49:46.328Z,22.62
2023-03-13T16:52:17.571Z,22.56
2023-03-13T16:54:46.068Z,22.46
2023-03-13T16:57:24.222Z,22.37
2023-03-13T16:59:51.933Z,22.26
2023-03-13T17:02:21.282Z,22.11
2023-03-13T17:04:50.012Z,21.92
2023-03-13T17:07:21.006Z,21.80
2023-03-13T17:09:48.738Z,21.63
2023-03-13T17:12:16.629Z,21.58
2023-03-13T17:14:44.367Z,21.41
2023-03-13T17:17:14.172Z,21.30
2023-03-13T17:19:41.770Z,21.20
2023-03-13T17:22:12.588Z,21.00
2023-03-13T17:24:42.019Z,20.76
2023-03-13T17:27:13.138Z,20.40
2023-03-13T17:29:40.845Z,19.83
2023-03-13T17:32:10.288Z,19.34
2023-03-13T17:34:37.954Z,18.94
2023-03-13T17:37:15.225Z,18.59
2023-03-13T17:39:44.651Z,18.36
2023-03-13T17:42:12.531Z,18.32
2023-03-13T17:44:41.156Z,18.10
2023-03-13T17:47:13.545Z,18.02
2023-03-13T17:49:41.179Z,17.77
2023-03-13T17:52:13.879Z,17.56
2023-03-13T17:54:41.645Z,17.16
2023-03-13T17:57:15.762Z,16.87
2023-03-13T17:59:43.928Z,16.59
2023-03-13T18:02:13.293Z,16.52
2023-03-13T18:04:41.457Z,16.37
2023-03-13T18:07:17.394Z,16.16
2023-03-13T18:09:47.441Z,16.00
2023-03-13T18:12:17.059Z,15.79
2023-03-13T18:14:45.126Z,15.73
2023-03-13T18:17:17.836Z,15.67
2023-03-13T18:19:45.692Z,15.47
2023-03-13T18:22:15.388Z,15.33
2023-03-13T18:24:42.968Z,15.39
2023-03-13T18:27:15.424Z,15.35
2023-03-13T18:29:44.903Z,15.36
2023-03-13T18:32:14.586Z,15.35
2023-03-13T18:34:42.397Z,15.35
2023-03-13T18:37:20.672Z,15.40
2023-03-13T18:39:49.775Z,15.36
2023-03-13T18:42:17.438Z,15.37
2023-03-13T18:44:46.338Z,15.39
2023-03-13T18:47:16.021Z,15.37
2023-03-13T18:49:43.810Z,15.32
2023-03-13T18:52:12.191Z,15.29
2023-03-13T18:54:40.058Z,15.30
2023-03-13T18:57:13.313Z,15.29
2023-03-13T18:59:41.041Z,15.24
2023-03-13T19:02:13.922Z,15.16
2023-03-13T19:04:41.536Z,15.06
2023-03-13T19:07:14.716Z,14.96
2023-03-13T19:09:44.092Z,14.96
2023-03-13T19:12:13.112Z,14.97
2023-03-13T19:14:40.665Z,15.01
2023-03-13T19:17:16.768Z,14.92
2023-03-13T19:19:44.343Z,14.72
2023-03-13T19:22:13.889Z,14.51
2023-03-13T19:24:41.469Z,14.20
2023-03-13T19:27:13.460Z,14.15
2023-03-13T19:29:41.147Z,14.05
2023-03-13T19:32:14.515Z,13.96
2023-03-13T19:34:41.973Z,13.75
2023-03-13T19:37:11.497Z,12.96
2023-03-13T19:39:39.084Z,12.36
2023-03-13T19:42:07.710Z,11.94
2023-03-13T19:44:36.061Z,11.74
2023-03-13T19:47:05.163Z,11.58
2023-03-13T19:49:34.509Z,11.38
2023-03-13T19:52:02.317Z,11.35
2023-03-13T19:54:29.961Z,11.22
2023-03-13T19:56:57.576Z,11.15
2023-03-13T19:59:26.841Z,11.11
2023-03-13T20:01:55.696Z,11.10
2023-03-13T20:04:24.933Z,11.08
2023-03-13T20:06:53.823Z,11.15
2023-03-13T20:09:21.485Z,11.14
2023-03-13T20:11:49.078Z,11.20
2023-03-13T20:14:16.788Z,11.23
2023-03-13T20:16:46.428Z,11.27
2023-03-13T20:19:13.948Z,11.28
2023-03-13T20:21:42.723Z,11.25
2023-03-13T20:24:11.659Z,11.20
2023-03-13T20:26:39.514Z,11.24
2023-03-13T20:29:07.174Z,11.13
2023-03-13T20:31:34.762Z,11.13
2023-03-13T20:34:02.473Z,11.11
2023-03-13T20:36:30.313Z,11.02
2023-03-13T20:38:57.931Z,11.00
2023-03-13T20:41:31.058Z,10.90
2023-03-13T20:43:58.703Z,10.87
2023-03-13T20:46:26.654Z,10.83
2023-03-13T20:48:54.230Z,10.80
2023-03-13T20:51:21.861Z,10.77
2023-03-13T20:53:49.471Z,10.75
2023-03-13T20:56:16.971Z,10.76
2023-03-13T20:58:45.891Z,10.76
2023-03-13T21:01:13.532Z,10.72
2023-03-13T21:03:41.188Z,10.76
2023-03-13T21:06:13.404Z,10.71
2023-03-13T21:08:41.167Z,10.74
2023-03-13T21:11:16.816Z,10.77
2023-03-13T21:13:45.980Z,10.70
2023-03-13T21:16:16.628Z,10.74
2023-03-13T21:18:44.334Z,10.70
2023-03-13T21:21:14.930Z,10.76
2023-03-13T21:23:42.615Z,10.78
2023-03-13T21:26:10.398Z,10.72
2023-03-13T21:28:39.244Z,10.73
2023-03-13T21:31:13.853Z,10.73
2023-03-13T21:33:42.096Z,10.73
2023-03-13T21:36:11.070Z,10.73
2023-03-13T21:38:39.256Z,10.77
2023-03-13T21:41:10.689Z,10.75
2023-03-13T21:43:41.343Z,10.73
2023-03-13T21:46:09.108Z,10.77
2023-03-13T21:48:38.779Z,10.78
2023-03-13T21:51:07.583Z,10.74
2023-03-13T21:53:35.285Z,10.71
2023-03-13T21:56:03.455Z,10.75
2023-03-13T21:58:31.261Z,10.73
2023-03-13T22:00:59.442Z,10.75
2023-03-13T22:03:27.363Z,10.78
2023-03-13T22:05:56.264Z,10.75
2023-03-13T22:08:23.842Z,10.68
2023-03-13T22:10:54.729Z,10.77
2023-03-13T22:13:22.803Z,10.71
2023-03-13T22:15:50.482Z,10.76
2023-03-13T22:18:18.724Z,10.79
2023-03-13T22:20:46.276Z,10.81
2023-03-13T22:23:15.239Z,10.79
2023-03-13T22:25:44.117Z,10.74
2023-03-13T22:28:12.672Z,10.78
2023-03-13T22:30:40.748Z,10.79
2023-03-13T22:33:08.780Z,10.87
2023-03-13T22:35:38.239Z,10.85
2023-03-13T22:38:06.389Z,10.90
2023-03-13T22:40:35.647Z,10.94
2023-03-13T22:43:03.284Z,10.91
2023-03-13T22:45:32.090Z,10.99
2023-03-13T22:48:05.857Z,11.02
2023-03-13T22:50:33.495Z,11.13
2023-03-13T22:53:01.072Z,11.19
2023-03-13T22:55:28.916Z,11.23
2023-03-13T22:57:57.767Z,11.26
2023-03-13T23:00:25.640Z,11.24
2023-03-13T23:02:54.578Z,11.27
2023-03-13T23:05:22.219Z,11.30
2023-03-13T23:07:50.847Z,11.32
2023-03-13T23:10:19.452Z,11.30
2023-03-13T23:12:46.962Z,11.30
2023-03-13T23:15:15.831Z,11.32
2023-03-13T23:17:43.354Z,11.37
2023-03-13T23:20:13.541Z,11.43
2023-03-13T23:22:42.351Z,11.44
2023-03-13T23:25:11.950Z,11.48
2023-03-13T23:27:39.986Z,11.58
2023-03-13T23:30:10.766Z,11.70
2023-03-13T23:32:42.194Z,11.75
2023-03-13T23:35:10.970Z,11.86
2023-03-13T23:37:38.825Z,11.89
2023-03-13T23:40:09.033Z,11.92
2023-03-13T23:42:36.962Z,11.97
2023-03-13T23:45:07.568Z,12.00
2023-03-13T23:47:35.179Z,12.01
2023-03-13T23:50:05.252Z,12.00
2023-03-13T23:52:34.857Z,12.05
2023-03-13T23:55:02.551Z,12.04
2023-03-13T23:57:30.154Z,12.10
2023-03-13T23:59:57.737Z,12.11
